createdAt,value
2024-04-21T12:34:45.690Z,50.875584
2024-04-21T12:35:45.707Z,50.875210
2024-04-21T12:36:45.649Z,50.875439
2024-04-21T12:37:45.650Z,50.875233
2024-04-21T12:38:45.626Z,50.875233
2024-04-21T12:39:45.633Z,50.875744
2024-04-21T12:40:45.646Z,50.875214
2024-04-21T12:41:45.604Z,50.875381
2024-04-21T12:42:46.071Z,50.875381
2024-04-21T12:43:46.602Z,50.875237
2024-04-21T12:44:45.579Z,50.875393
2024-04-21T12:45:45.563Z,50.875389
2024-04-21T12:46:45.574Z,50.875282
2024-04-21T12:47:45.656Z,50.874489
2024-04-21T12:48:45.530Z,50.868092
2024-04-21T12:49:45.544Z,50.855492
2024-04-21T12:50:45.519Z,50.855492
2024-04-21T12:51:45.490Z,50.875526
2024-04-21T12:52:45.494Z,50.875137
2024-04-21T12:53:45.492Z,50.875332
2024-04-21T12:54:45.504Z,50.875481
2024-04-21T12:55:45.473Z,50.875481
2024-04-21T12:56:45.468Z,50.875481
2024-04-21T12:57:45.460Z,50.875481
2024-04-21T12:58:45.459Z,50.875481
2024-04-21T12:59:46.519Z,50.875481
2024-04-21T13:00:46.405Z,50.875481
2024-04-21T13:01:45.452Z,50.875481
2024-04-21T13:02:45.552Z,50.875481
2024-04-21T13:03:45.407Z,50.875481
2024-04-21T13:04:45.507Z,50.875481
2024-04-21T13:05:45.357Z,50.875481
2024-04-21T13:06:45.343Z,50.875481
2024-04-21T13:07:45.357Z,50.875481
2024-04-21T13:08:45.343Z,50.875481
2024-04-21T13:09:45.334Z,50.875481
2024-04-21T13:10:45.367Z,50.875481
2024-04-21T13:11:45.316Z,50.875481
2024-04-21T13:12:45.332Z,50.875481
2024-04-21T13:13:45.299Z,50.875481
2024-04-21T13:14:45.272Z,50.874996
2024-04-21T13:15:45.280Z,50.874977
2024-04-21T13:16:45.249Z,50.875343
2024-04-21T13:17:46.771Z,50.875320
2024-04-21T13:18:46.258Z,50.875343
2024-04-21T13:19:45.238Z,50.875385
2024-04-21T13:20:45.251Z,50.875927
2024-04-21T13:21:45.202Z,50.875896
2024-04-21T13:22:45.195Z,50.875282
2024-04-21T13:23:45.183Z,50.874847
2024-04-21T13:24:45.190Z,50.875057
2024-04-21T13:25:45.161Z,50.875443
2024-04-21T13:26:45.167Z,50.875477
2024-04-21T13:27:45.148Z,50.875187
2024-04-21T13:28:45.172Z,50.875095
2024-04-21T13:29:58.973Z,50.875221
2024-04-21T13:30:45.130Z,50.875278
2024-04-21T13:31:45.130Z,50.875397
2024-04-21T13:32:45.293Z,50.875450
2024-04-21T13:33:45.107Z,50.875355
2024-04-21T13:34:45.106Z,50.875359
2024-04-21T13:35:45.099Z,50.875336
2024-04-21T13:36:45.105Z,50.875156
2024-04-21T13:37:45.079Z,50.874710
2024-04-21T13:38:45.067Z,50.875042
2024-04-21T13:39:45.090Z,50.876667
2024-04-21T13:40:45.067Z,50.883995
2024-04-21T13:41:45.052Z,50.883995
2024-04-21T13:42:45.056Z,50.883995
2024-04-21T13:43:45.035Z,50.883995
2024-04-21T13:44:44.989Z,50.883995
2024-04-21T13:45:45.043Z,50.883995
2024-04-21T13:46:45.047Z,50.883995
2024-04-21T13:47:45.058Z,50.883995
2024-04-21T13:48:44.989Z,50.883995
2024-04-21T13:49:45.935Z,50.883995
2024-04-21T13:50:44.970Z,50.883995
2024-04-21T13:51:44.986Z,50.883995
2024-04-21T13:52:44.961Z,50.883995
2024-04-21T13:53:44.960Z,50.883995
2024-04-21T13:54:44.925Z,50.883995
2024-04-21T13:55:44.942Z,50.883995
2024-04-21T13:56:44.890Z,50.883995
2024-04-21T13:57:44.911Z,50.883995
2024-04-21T13:58:44.898Z,50.883995
2024-04-21T13:59:44.886Z,50.883995
2024-04-21T14:00:44.849Z,50.883995
2024-04-21T14:01:44.888Z,50.883995
2024-04-21T14:02:44.863Z,50.883995
2024-04-21T14:03:44.876Z,50.883995
2024-04-21T14:04:44.931Z,50.883995
2024-04-21T14:05:44.821Z,50.883995
2024-04-21T14:06:44.788Z,50.883995
2024-04-21T14:07:44.785Z,50.883995
2024-04-21T14:08:44.787Z,50.883995
2024-04-21T14:09:44.802Z,50.883995
2024-04-21T14:10:44.862Z,50.883995
2024-04-21T14:11:44.738Z,50.883995
2024-04-21T14:12:45.745Z,50.883995
2024-04-21T14:13:44.761Z,50.883995
2024-04-21T14:14:44.719Z,50.883995
2024-04-21T14:15:44.733Z,50.883995
2024-04-21T14:16:44.782Z,50.883995
2024-04-21T14:17:44.757Z,50.883995
2024-04-21T14:18:45.960Z,50.883995
2024-04-21T14:19:44.736Z,50.883995
2024-04-21T14:20:44.640Z,50.883995
2024-04-21T14:21:44.654Z,50.883995
2024-04-21T14:22:44.694Z,50.883995
2024-04-21T14:23:44.613Z,50.883995
2024-04-21T14:24:44.606Z,50.883995
2024-04-21T14:25:44.579Z,50.883995
2024-04-21T14:26:44.581Z,50.883995
2024-04-21T14:27:44.605Z,50.883995
2024-04-21T14:28:44.600Z,50.883995
2024-04-21T14:29:47.077Z,50.883995
2024-04-21T14:30:46.609Z,50.883995
2024-04-21T14:31:44.668Z,50.883995
2024-04-21T14:32:44.585Z,50.883995
2024-04-21T14:33:44.562Z,50.883995
2024-04-21T14:34:44.510Z,50.883995
2024-04-21T14:35:44.504Z,50.883995
2024-04-21T14:36:44.487Z,50.883995
2024-04-21T14:37:44.505Z,50.883995
2024-04-21T14:38:44.559Z,50.883995
2024-04-21T14:39:44.447Z,50.883995
2024-04-21T14:40:44.445Z,50.883995
2024-04-21T14:41:44.438Z,50.883995
2024-04-21T14:42:44.452Z,50.883995
2024-04-21T14:43:44.411Z,50.883995
2024-04-21T14:44:44.856Z,50.883995
2024-04-21T14:45:44.416Z,50.883995
2024-04-21T14:46:44.402Z,50.883995
2024-04-21T14:47:44.422Z,50.883995
2024-04-21T14:48:44.400Z,50.883995
2024-04-21T14:49:44.386Z,50.883995
2024-04-21T14:50:44.373Z,50.883995
2024-04-21T14:51:46.877Z,50.883995
2024-04-21T14:52:45.379Z,50.883995
2024-04-21T14:53:44.324Z,50.883995
2024-04-21T14:54:44.319Z,50.883995
2024-04-21T14:55:44.335Z,50.883995
2024-04-21T14:56:44.306Z,50.883995
2024-04-21T14:57:48.204Z,50.883995
2024-04-21T14:58:45.311Z,50.883995
2024-04-21T14:59:44.300Z,50.883995
2024-04-21T15:00:44.302Z,50.883995
2024-04-21T15:01:44.380Z,50.883995
2024-04-21T15:02:44.297Z,50.883995
2024-04-21T15:03:44.293Z,50.883995
2024-04-21T15:04:45.022Z,50.883995
2024-04-21T15:05:44.247Z,50.883995
2024-04-21T15:06:44.235Z,50.883995
2024-04-21T15:07:44.211Z,50.883995
2024-04-21T15:08:44.197Z,50.883995
2024-04-21T15:09:44.180Z,50.883995
2024-04-21T15:10:44.200Z,50.883995
2024-04-21T15:11:44.148Z,50.883995
2024-04-21T15:12:44.134Z,50.883995
2024-04-21T15:13:44.158Z,50.883995
2024-04-21T15:14:44.122Z,50.883995
2024-04-21T15:15:44.120Z,50.883995
2024-04-21T15:16:46.064Z,50.883995
2024-04-21T15:17:45.203Z,50.883995
2024-04-21T15:18:44.100Z,50.883995
2024-04-21T15:19:44.120Z,50.883995
2024-04-21T15:20:44.083Z,50.883995
2024-04-21T15:21:44.050Z,50.883995
2024-04-21T15:22:44.072Z,50.883995
2024-04-21T15:23:44.092Z,50.883995
2024-04-21T15:24:44.066Z,50.883995
2024-04-21T15:25:44.020Z,50.883995
2024-04-21T15:26:44.069Z,50.883995
2024-04-21T15:27:44.018Z,50.883995
2024-04-21T15:28:44.032Z,50.883995
2024-04-21T15:29:44.008Z,50.883995
2024-04-21T15:30:43.976Z,50.883995
2024-04-21T15:31:44.008Z,50.883995
2024-04-21T15:32:44.042Z,50.883995
2024-04-21T15:33:44.109Z,50.883995
2024-04-21T15:34:43.933Z,50.883995
2024-04-21T15:35:43.924Z,50.883995
2024-04-21T15:36:43.944Z,50.883995
2024-04-21T15:37:44.098Z,50.883995
2024-04-21T15:38:43.911Z,50.883995
2024-04-21T15:39:43.882Z,50.883995
2024-04-21T15:40:43.933Z,50.883995
2024-04-21T15:41:43.851Z,50.883995
2024-04-21T15:42:43.888Z,50.883995
2024-04-21T15:43:43.866Z,50.883995
2024-04-21T15:44:43.872Z,50.883995
2024-04-21T15:45:43.840Z,50.883995
2024-04-21T15:46:43.870Z,50.883995
2024-04-21T15:47:43.864Z,50.883995
2024-04-21T15:48:43.800Z,50.883995
2024-04-21T15:49:43.780Z,50.883995
2024-04-21T15:50:43.780Z,50.883995
2024-04-21T15:51:43.806Z,50.883995
2024-04-21T15:52:43.766Z,50.883995
2024-04-21T15:53:43.779Z,50.883995
2024-04-21T15:54:43.743Z,50.883995
2024-04-21T15:55:43.778Z,50.883995
2024-04-21T15:56:43.727Z,50.883995
2024-04-21T15:57:43.726Z,50.883995
2024-04-21T15:58:43.683Z,50.883995
2024-04-21T15:59:43.698Z,50.883995
2024-04-21T16:00:43.706Z,50.883995
2024-04-21T16:01:43.849Z,50.883995
2024-04-21T16:02:43.783Z,50.883995
2024-04-21T16:03:43.706Z,50.883995
2024-04-21T16:04:43.638Z,50.883995
2024-04-21T16:05:43.645Z,50.883995
2024-04-21T16:06:43.640Z,50.883995
2024-04-21T16:07:43.651Z,50.883995
2024-04-21T16:08:43.593Z,50.883995
2024-04-21T16:09:43.553Z,50.883995
2024-04-21T16:10:43.776Z,50.883995
2024-04-21T16:11:43.601Z,50.883995
2024-04-21T16:12:44.546Z,50.883995
2024-04-21T16:13:43.531Z,50.883995
2024-04-21T16:14:43.536Z,50.883995
2024-04-21T16:15:43.529Z,50.883995
2024-04-21T16:16:43.557Z,50.883995
2024-04-21T16:17:43.574Z,50.883995
2024-04-21T16:18:43.490Z,50.883995
2024-04-21T16:19:43.529Z,50.883995
2024-04-21T16:20:43.484Z,50.883995
2024-04-21T16:21:43.446Z,50.883995
2024-04-21T16:22:46.598Z,50.883995
2024-04-21T16:23:43.440Z,50.883995
2024-04-21T16:24:43.429Z,50.883995
2024-04-21T16:25:43.449Z,50.883995
2024-04-21T16:26:43.402Z,50.883995
2024-04-21T16:27:43.461Z,50.883995
2024-04-21T16:28:43.448Z,50.883995
2024-04-21T16:29:43.370Z,50.883995
2024-04-21T16:30:43.370Z,50.883995
2024-04-21T16:31:43.328Z,50.883995
2024-04-21T16:32:43.448Z,50.883995
2024-04-21T16:33:43.405Z,50.883995
2024-04-21T16:34:43.326Z,50.883995
2024-04-21T16:35:43.310Z,50.883995
2024-04-21T16:36:43.305Z,50.883995
2024-04-21T16:37:43.253Z,50.883995
2024-04-21T16:38:43.279Z,50.883995
2024-04-21T16:39:43.269Z,50.883995
2024-04-21T16:40:43.293Z,50.883995
2024-04-21T16:41:43.232Z,50.883995
2024-04-21T16:42:43.233Z,50.883995
2024-04-21T16:43:43.246Z,50.883995
2024-04-21T16:44:43.219Z,50.883995
2024-04-21T16:45:43.189Z,50.883995
2024-04-21T16:46:43.181Z,50.883995
2024-04-21T16:47:43.182Z,50.883995
2024-04-21T16:48:43.141Z,50.883995
2024-04-21T16:49:43.190Z,50.883995
2024-04-21T16:50:43.127Z,50.883995
2024-04-21T16:51:43.119Z,50.883995
2024-04-21T16:52:43.160Z,50.883995
2024-04-21T16:53:43.085Z,50.883995
2024-04-21T16:54:43.107Z,50.883995
2024-04-21T16:55:44.157Z,50.883995
2024-04-21T16:56:43.106Z,50.883995
2024-04-21T16:57:43.055Z,50.883995
2024-04-21T16:58:44.161Z,50.883995
2024-04-21T16:59:43.154Z,50.883995
2024-04-21T17:00:43.069Z,50.883995
2024-04-21T17:01:43.074Z,50.883995
2024-04-21T17:02:43.051Z,50.883995
2024-04-21T17:03:43.051Z,50.883995
2024-04-21T17:04:43.044Z,50.883995
2024-04-21T17:05:42.997Z,50.883995
2024-04-21T17:06:42.967Z,50.883995
2024-04-21T17:07:42.961Z,50.883995
2024-04-21T17:08:42.971Z,50.883995
2024-04-21T17:09:42.960Z,50.883995
2024-04-21T17:10:42.979Z,50.883995
2024-04-21T17:11:42.908Z,50.883995
2024-04-21T17:12:42.911Z,50.883995
2024-04-21T17:13:42.952Z,50.883995
2024-04-21T17:14:42.892Z,50.883995
2024-04-21T17:15:42.892Z,50.883995
2024-04-21T17:16:42.925Z,50.883995
2024-04-21T17:17:42.970Z,50.883995
2024-04-21T17:18:42.835Z,50.883995
2024-04-21T17:19:42.866Z,50.883995
2024-04-21T17:20:42.838Z,50.883995
2024-04-21T17:21:42.813Z,50.883995
2024-04-21T17:22:42.804Z,50.883995
2024-04-21T17:23:42.813Z,50.883995
2024-04-21T17:24:42.789Z,50.883995
2024-04-21T17:25:42.758Z,50.883995
2024-04-21T17:26:42.784Z,50.883995
2024-04-21T17:27:42.761Z,50.883995
2024-04-21T17:28:42.755Z,50.883995
2024-04-21T17:29:42.727Z,50.883995
2024-04-21T17:30:42.806Z,50.883995
2024-04-21T17:31:44.759Z,50.883995
2024-04-21T17:32:42.728Z,50.883995
2024-04-21T17:33:42.785Z,50.883995
2024-04-21T17:34:42.784Z,50.883995
2024-04-21T17:35:42.695Z,50.883995
2024-04-21T17:36:42.729Z,50.883995
2024-04-21T17:37:42.670Z,50.883995
2024-04-21T17:38:42.661Z,50.883995
2024-04-21T17:39:42.792Z,50.883995
2024-04-21T17:40:45.324Z,50.883995
2024-04-21T17:41:44.858Z,50.883995
2024-04-21T17:42:43.170Z,50.883995
2024-04-21T17:43:42.706Z,50.883995
2024-04-21T17:44:42.626Z,50.883995
2024-04-21T17:45:42.615Z,50.883995
2024-04-21T17:46:42.680Z,50.883995
2024-04-21T17:47:42.668Z,50.883995
2024-04-21T17:48:42.867Z,50.883995
2024-04-21T17:49:42.602Z,50.883995
2024-04-21T17:51:38.031Z,50.883995
2024-04-21T17:51:42.836Z,50.883995
2024-04-21T17:53:01.759Z,50.883995
